Time;durP1;ratioP1;P1;durP2;ratioP2;P2;SDS_P1;SDS_P2;PMS_P1;PMS_P2;Temp;Humidity;BMP_temperature;BMP_pressure;BME280_temperature;BME280_humidity;BME280_pressure;Samples;Min_cycle;Max_cycle;Signal;HPM_P1;HPM_P2
2021/07/02 00:02:36;;;;;;;9.63;3.50;;;;;;;21.49;84.24;99636.13;6248672;28;20084;-70
2021/07/02 00:05:36;;;;;;;9.07;3.63;;;;;;;21.34;85.05;99644.78;6247343;28;20553;-69
2021/07/02 00:08:37;;;;;;;10.63;3.67;;;;;;;21.23;86.60;99645.19;6247240;28;20069;-69
2021/07/02 00:11:38;;;;;;;15.37;4.43;;;;;;;21.23;87.26;99645.19;6248563;28;20069;-70
2021/07/02 00:14:39;;;;;;;12.03;4.13;;;;;;;20.93;89.37;99647.59;6248468;28;20066;-70
2021/07/02 00:17:40;;;;;;;15.77;4.83;;;;;;;20.87;88.39;99637.69;6248282;28;20053;-70
2021/07/02 00:20:41;;;;;;;11.23;3.92;;;;;;;20.88;87.45;99636.69;6248227;28;20047;-70
2021/07/02 00:23:42;;;;;;;10.47;4.20;;;;;;;20.76;90.13;99648.66;6247082;28;20483;-70
2021/07/02 00:26:43;;;;;;;9.30;3.97;;;;;;;20.88;90.39;99649.94;6246973;28;20138;-70
2021/07/02 00:29:43;;;;;;;7.87;4.37;;;;;;;20.91;90.44;99646.13;6247765;28;20065;-70
2021/07/02 00:32:44;;;;;;;9.23;4.40;;;;;;;21.01;87.31;99641.44;6246805;28;20433;-70
2021/07/02 00:35:45;;;;;;;4.97;4.00;;;;;;;20.85;89.15;99625.59;6247890;28;20099;-70
2021/07/02 00:38:46;;;;;;;8.63;4.70;;;;;;;20.60;90.64;99625.66;6246565;28;20056;-70
2021/07/02 00:41:46;;;;;;;7.20;4.67;;;;;;;20.57;89.37;99622.47;6246489;28;20067;-70
2021/07/02 00:44:48;;;;;;;8.37;4.50;;;;;;;20.62;91.49;99617.53;6246865;28;20041;-70
2021/07/02 00:47:48;;;;;;;6.90;4.40;;;;;;;20.66;92.72;99614.38;6247439;28;20381;-70
2021/07/02 00:50:50;;;;;;;8.60;5.13;;;;;;;20.80;91.29;99604.91;6230003;28;20144;-70
2021/07/02 00:53:50;;;;;;;7.80;4.28;;;;;;;20.93;91.12;99599.03;6229912;28;20041;-70
2021/07/02 00:56:52;;;;;;;8.33;4.37;;;;;;;21.00;89.44;99591.22;6247348;28;20534;-70
2021/07/02 00:59:52;;;;;;;9.53;4.67;;;;;;;21.08;90.73;99594.66;6245876;28;20045;-70
2021/07/02 01:02:53;;;;;;;8.47;4.33;;;;;;;21.08;90.39;99592.00;6229754;28;20041;-70
2021/07/02 01:05:55;;;;;;;7.33;4.60;;;;;;;21.11;90.51;99590.84;6247184;28;20045;-70
2021/07/02 01:08:55;;;;;;;8.05;4.35;;;;;;;21.11;88.41;99602.28;6246939;28;20045;-70
2021/07/02 01:11:57;;;;;;;7.27;4.17;;;;;;;21.01;89.33;99592.91;6246720;28;20408;-70
2021/07/02 01:14:58;;;;;;;;;;;;;;;20.83;90.69;99590.47;6247381;28;20051;-70
2021/07/02 01:17:59;;;;;;;6.72;4.05;;;;;;;20.85;90.24;99577.88;6245573;28;20296;-69
2021/07/02 01:20:59;;;;;;;6.33;4.20;;;;;;;20.71;88.71;99574.94;6245652;28;20045;-70
2021/07/02 01:24:01;;;;;;;5.30;3.93;;;;;;;20.75;88.58;99566.63;6246859;28;20046;-70
2021/07/02 01:27:01;;;;;;;7.15;4.35;;;;;;;20.70;89.67;99562.66;6245620;28;20041;-69
2021/07/02 01:30:06;;;;;;;8.37;4.13;;;;;;;20.65;88.67;99558.88;6245215;28;20045;-69
2021/07/02 01:33:09;;;;;;;4.25;3.85;;;;;;;20.81;87.18;99558.00;6229277;28;20056;-69
2021/07/02 01:36:16;;;;;;;4.82;4.15;;;;;;;20.83;85.41;99545.41;6245402;28;20061;-70
2021/07/02 01:39:17;;;;;;;4.47;3.67;;;;;;;20.77;84.94;99543.44;6246490;28;20045;-70
2021/07/02 01:42:18;;;;;;;6.73;4.17;;;;;;;20.63;86.44;99535.22;6246389;28;20041;-70
2021/07/02 01:45:19;;;;;;;3.87;3.40;;;;;;;20.68;85.61;99545.28;6246519;28;20504;-70
2021/07/02 01:48:21;;;;;;;7.23;3.73;;;;;;;20.64;85.99;99547.44;6246219;28;20081;-70
2021/07/02 01:51:22;;;;;;;4.82;3.80;;;;;;;20.60;84.90;99545.31;6228795;28;20048;-70
2021/07/02 01:54:23;;;;;;;4.03;3.40;;;;;;;20.66;84.57;99542.00;6245137;28;20037;-70
2021/07/02 01:57:26;;;;;;;4.63;3.70;;;;;;;20.48;86.16;99542.16;6246025;28;20049;-70
2021/07/02 02:00:27;;;;;;;5.28;3.92;;;;;;;20.43;86.72;99533.91;6246244;28;20041;-70
2021/07/02 02:03:28;;;;;;;3.83;3.42;;;;;;;20.52;85.79;99535.53;6228587;28;20056;-70
2021/07/02 02:06:29;;;;;;;6.90;3.53;;;;;;;20.57;86.92;99535.00;6228742;28;20046;-70
2021/07/02 02:09:29;;;;;;;4.57;4.10;;;;;;;20.57;86.50;99529.72;6244722;28;20065;-70
2021/07/02 02:12:30;;;;;;;4.60;3.87;;;;;;;20.59;86.10;99527.75;6244916;28;20046;-70
2021/07/02 02:15:31;;;;;;;6.50;4.33;;;;;;;20.58;85.05;99532.22;6246153;28;20046;-70
2021/07/02 02:18:32;;;;;;;4.40;3.87;;;;;;;20.48;86.14;99531.56;6228538;28;20057;-70
2021/07/02 02:21:32;;;;;;;4.50;4.10;;;;;;;20.41;86.92;99526.13;6245928;28;20042;-70
2021/07/02 02:24:33;;;;;;;5.20;3.73;;;;;;;20.44;87.51;99538.22;6246064;28;20480;-70
2021/07/02 02:27:34;;;;;;;5.67;4.13;;;;;;;20.30;87.16;99540.56;6245957;28;20130;-70
2021/07/02 02:30:36;;;;;;;8.55;4.10;;;;;;;20.37;87.75;99542.53;6245737;28;20077;-70
2021/07/02 02:33:36;;;;;;;5.72;4.32;;;;;;;20.37;87.10;99543.38;6245958;28;20037;-70
2021/07/02 02:36:37;;;;;;;6.07;4.07;;;;;;;20.41;86.87;99534.09;6245765;28;20061;-70
2021/07/02 02:39:38;;;;;;;10.27;4.63;;;;;;;20.36;87.24;99533.75;6245825;28;20041;-70
2021/07/02 02:42:39;;;;;;;9.65;4.55;;;;;;;20.41;86.89;99535.91;6245778;28;20046;-72
2021/07/02 02:45:40;;;;;;;5.43;4.30;;;;;;;20.43;87.04;99532.09;6244866;28;20503;-72
2021/07/02 02:48:41;;;;;;;6.90;4.70;;;;;;;20.46;87.48;99531.72;6244310;28;20049;-72
2021/07/02 02:51:41;;;;;;;11.40;5.20;;;;;;;20.45;87.21;99524.78;6245733;28;20048;-72
2021/07/02 02:54:42;;;;;;;6.50;4.57;;;;;;;20.47;86.10;99528.09;6245678;28;20073;-72
2021/07/02 02:57:43;;;;;;;7.33;4.90;;;;;;;20.39;86.17;99522.00;6245735;28;20400;-72
2021/07/02 03:00:44;;;;;;;7.40;4.80;;;;;;;20.42;85.99;99514.53;6244211;28;20049;-72
2021/07/02 03:03:44;;;;;;;7.47;5.27;;;;;;;20.45;86.22;99513.38;6245497;28;20133;-72
2021/07/02 03:06:45;;;;;;;6.90;5.20;;;;;;;20.40;87.40;99513.03;6245535;28;20045;-72
2021/07/02 03:09:46;;;;;;;5.77;5.10;;;;;;;20.39;87.31;99525.47;6248328;28;20037;-72
2021/07/02 03:12:46;;;;;;;6.97;5.10;;;;;;;20.37;87.22;99530.13;6248691;28;20052;-72
2021/07/02 03:15:48;;;;;;;7.33;5.70;;;;;;;20.09;88.59;99543.72;6232388;28;20464;-72
2021/07/02 03:18:48;;;;;;;6.00;5.33;;;;;;;19.88;88.04;99546.91;6232149;28;20091;-72
2021/07/02 03:21:49;;;;;;;6.53;5.13;;;;;;;19.87;88.45;99558.50;6231952;28;20274;-72
2021/07/02 03:24:50;;;;;;;10.20;6.07;;;;;;;19.89;88.45;99559.16;6248450;28;20104;-72
2021/07/02 03:27:51;;;;;;;8.02;6.07;;;;;;;19.95;88.96;99560.28;6249441;28;20037;-72
2021/07/02 03:30:52;;;;;;;6.40;5.80;;;;;;;19.95;90.87;99559.47;6248245;28;20041;-72
2021/07/02 03:33:53;;;;;;;8.73;5.93;;;;;;;19.82;89.60;99552.03;6248271;28;20068;-72
2021/07/02 03:36:53;;;;;;;8.60;5.57;;;;;;;19.95;89.36;99559.47;6248082;28;20489;-72
2021/07/02 03:39:54;;;;;;;6.23;5.60;;;;;;;19.81;89.32;99559.16;6249238;28;20076;-72
2021/07/02 03:42:55;;;;;;;6.63;5.63;;;;;;;19.93;89.68;99567.56;6249073;28;20060;-72
2021/07/02 03:45:56;;;;;;;9.73;5.50;;;;;;;19.98;88.75;99573.22;6249128;28;20132;-72
2021/07/02 03:48:57;;;;;;;10.57;6.00;;;;;;;20.00;89.46;99576.53;6248925;28;20069;-72
2021/07/02 03:51:58;;;;;;;9.60;5.97;;;;;;;20.07;89.86;99582.78;6248881;28;20048;-72
2021/07/02 03:54:59;;;;;;;8.43;5.77;;;;;;;20.05;90.42;99590.06;6248920;28;20042;-72
2021/07/02 03:58:00;;;;;;;9.55;5.55;;;;;;;20.09;90.41;99593.22;6248997;28;20408;-72
2021/07/02 04:01:01;;;;;;;15.40;6.17;;;;;;;20.16;90.67;99596.03;6248545;28;20100;-72
2021/07/02 04:04:03;;;;;;;6.55;5.32;;;;;;;20.20;89.86;99590.25;6248716;28;20063;-72
2021/07/02 04:07:05;;;;;;;10.60;6.13;;;;;;;20.30;87.62;99593.56;6248637;28;20041;-72
2021/07/02 04:10:07;;;;;;;14.02;6.28;;;;;;;20.39;87.59;99598.84;6247294;28;20507;-73
2021/07/02 04:13:08;;;;;;;17.05;6.70;;;;;;;20.43;88.25;99598.34;6247241;28;20038;-72
2021/07/02 04:16:09;;;;;;;17.13;7.13;;;;;;;20.32;89.64;99594.22;6247163;28;20088;-73
2021/07/02 04:19:10;;;;;;;12.30;6.40;;;;;;;20.39;87.92;99599.66;6247061;28;20411;-73
2021/07/02 04:22:11;;;;;;;11.73;6.43;;;;;;;20.38;88.78;99602.47;6246971;28;20415;-72
2021/07/02 04:25:12;;;;;;;13.02;6.38;;;;;;;20.45;87.06;99608.78;6248194;28;20050;-73
2021/07/02 04:28:13;;;;;;;8.87;6.33;;;;;;;20.36;86.74;99609.75;6248037;28;20052;-73
2021/07/02 04:31:13;;;;;;;10.97;7.27;;;;;;;20.22;87.60;99613.91;6248452;28;20044;-73
2021/07/02 04:34:14;;;;;;;10.33;6.40;;;;;;;20.18;87.66;99621.38;6247980;28;20041;-72
2021/07/02 04:37:15;;;;;;;11.37;7.20;;;;;;;20.02;89.87;99631.97;6247758;28;20056;-73
2021/07/02 04:40:16;;;;;;;9.07;6.90;;;;;;;19.93;89.13;99626.66;6246499;28;20408;-72
2021/07/02 04:43:17;;;;;;;7.80;5.37;;;;;;;19.95;88.81;99625.66;6247994;28;20125;-72
2021/07/02 04:46:18;;;;;;;11.70;5.10;;;;;;;19.79;90.23;99626.47;6247668;28;20041;-72
2021/07/02 04:49:18;;;;;;;5.65;4.57;;;;;;;19.99;89.58;99624.34;6246009;28;20091;-72
2021/07/02 04:52:19;;;;;;;11.10;4.47;;;;;;;20.13;86.29;99613.09;6247267;28;20077;-72
2021/07/02 04:55:20;;;;;;;6.40;4.00;;;;;;;20.16;89.51;99618.06;6247441;28;20041;-73
2021/07/02 04:58:21;;;;;;;10.53;4.80;;;;;;;20.26;87.93;99620.53;6247653;28;20041;-73
2021/07/02 05:01:23;;;;;;;7.95;5.25;;;;;;;20.25;88.39;99618.88;6245834;28;20179;-72
2021/07/02 05:04:24;;;;;;;9.30;6.00;;;;;;;20.36;85.92;99623.81;6229727;28;20045;-73
2021/07/02 05:07:25;;;;;;;7.27;5.63;;;;;;;20.43;86.33;99629.31;6247103;28;20400;-73
2021/07/02 05:10:26;;;;;;;6.90;5.50;;;;;;;20.57;87.67;99625.13;6229695;28;20156;-72
2021/07/02 05:13:26;;;;;;;7.67;5.87;;;;;;;20.62;87.71;99625.50;6247067;28;20124;-73
2021/07/02 05:16:27;;;;;;;8.53;6.37;;;;;;;20.68;86.72;99632.78;6229169;28;20050;-73
2021/07/02 05:19:28;;;;;;;7.60;6.57;;;;;;;20.73;84.99;99628.63;6246056;28;20104;-73
2021/07/02 05:22:29;;;;;;;12.67;6.60;;;;;;;20.79;83.15;99634.22;6246894;28;20124;-73
2021/07/02 05:25:31;;;;;;;8.07;6.40;;;;;;;20.86;83.81;99632.56;6246773;28;20489;-73
2021/07/02 05:28:33;;;;;;;;;;;;;;;20.95;83.60;99628.88;6228891;28;20033;-73
2021/07/02 05:31:34;;;;;;;9.95;6.72;;;;;;;20.83;85.80;99630.25;6244945;28;19932;-73
2021/07/02 05:34:35;;;;;;;10.70;6.70;;;;;;;20.98;86.40;99622.41;6246511;28;20045;-73
2021/07/02 05:37:41;;;;;;;12.00;7.00;;;;;;;20.95;85.04;99626.22;6228824;28;20060;-72
2021/07/02 05:40:41;;;;;;;9.85;6.90;;;;;;;20.91;84.74;99631.03;6246288;28;20377;-72
2021/07/02 05:43:42;;;;;;;9.33;6.83;;;;;;;20.99;85.32;99632.03;6246348;28;20124;-73
2021/07/02 05:46:43;;;;;;;10.37;6.83;;;;;;;21.06;86.14;99627.66;6245171;28;20049;-73
2021/07/02 05:49:44;;;;;;;9.18;7.38;;;;;;;20.94;88.17;99624.59;6246360;28;20037;-72
2021/07/02 05:52:46;;;;;;;15.17;7.47;;;;;;;21.07;82.94;99626.69;6228472;28;20052;-75
2021/07/02 05:55:47;;;;;;;9.77;7.15;;;;;;;21.08;83.22;99628.31;6244974;28;20045;-72
2021/07/02 05:58:48;;;;;;;11.67;7.93;;;;;;;21.09;81.43;99622.03;6212214;28;20069;-71
2021/07/02 06:01:48;;;;;;;11.33;7.40;;;;;;;21.13;83.22;99626.00;6245844;28;20057;-72
2021/07/02 06:04:49;;;;;;;8.63;7.27;;;;;;;21.03;82.41;99631.50;6245956;28;20041;-73
2021/07/02 06:07:53;;;;;;;14.77;7.80;;;;;;;20.88;82.07;99627.91;6244788;28;20144;-74
2021/07/02 06:10:54;;;;;;;10.30;7.32;;;;;;;20.92;84.81;99629.22;6245850;28;20048;-73
2021/07/02 06:13:55;;;;;;;11.13;6.87;;;;;;;20.86;82.04;99622.78;6246476;28;20121;-73
2021/07/02 06:16:56;;;;;;;11.13;6.50;;;;;;;20.97;82.15;99626.88;6228312;28;20111;-74
2021/07/02 06:19:57;;;;;;;12.30;6.40;;;;;;;20.90;81.71;99632.03;6245862;28;20128;-73
2021/07/02 06:22:57;;;;;;;8.80;6.70;;;;;;;20.90;83.93;99625.91;6246294;28;20388;-73
2021/07/02 06:25:59;;;;;;;13.97;6.53;;;;;;;20.90;83.85;99625.91;6245795;28;20069;-73
2021/07/02 06:28:59;;;;;;;9.50;6.63;;;;;;;20.97;82.67;99624.22;6245611;28;20049;-73
2021/07/02 06:32:00;;;;;;;11.17;7.13;;;;;;;20.99;82.69;99616.94;6244534;28;20203;-73
2021/07/02 06:35:01;;;;;;;10.13;7.03;;;;;;;21.02;83.58;99635.13;6228156;28;20042;-73
2021/07/02 06:38:02;;;;;;;8.90;6.50;;;;;;;21.06;82.88;99630.31;6244485;28;20124;-73
2021/07/02 06:41:03;;;;;;;11.70;6.40;;;;;;;21.02;80.77;99629.81;6227872;28;20053;-73
2021/07/02 06:44:04;;;;;;;9.20;5.70;;;;;;;21.02;79.78;99629.00;6231348;28;20121;-73
2021/07/02 06:47:05;;;;;;;8.25;5.45;;;;;;;21.02;78.91;99629.00;6250360;28;20041;-74
2021/07/02 06:50:07;;;;;;;9.33;5.20;;;;;;;20.95;78.50;99628.88;6248993;28;20126;-74
2021/07/02 06:53:08;;;;;;;8.02;5.13;;;;;;;20.95;78.92;99628.06;6250040;28;20478;-70
2021/07/02 06:56:09;;;;;;;11.07;5.50;;;;;;;20.95;79.78;99634.19;6250070;28;20042;-70
2021/07/02 06:59:09;;;;;;;9.77;5.57;;;;;;;20.90;79.35;99625.91;6249917;28;20132;-69
2021/07/02 07:02:12;;;;;;;11.07;5.67;;;;;;;20.98;79.73;99623.25;6246260;28;20279;-66
2021/07/02 07:05:14;;;;;;;7.43;5.15;;;;;;;20.92;81.44;99626.59;6249513;28;20041;-66
2021/07/02 07:08:15;;;;;;;7.82;5.63;;;;;;;20.77;81.04;99626.44;6248848;28;20033;-66
2021/07/02 07:11:16;;;;;;;6.60;5.53;;;;;;;20.97;82.88;99632.19;6249838;28;20103;-67
2021/07/02 07:14:17;;;;;;;6.77;5.57;;;;;;;21.03;82.09;99631.50;6248612;28;20052;-67
2021/07/02 07:17:17;;;;;;;8.97;5.60;;;;;;;21.19;79.81;99638.56;6232062;28;20461;-66
2021/07/02 07:20:19;;;;;;;7.73;5.10;;;;;;;21.28;79.60;99644.66;6247256;28;20440;-67
2021/07/02 07:23:20;;;;;;;8.45;4.65;;;;;;;21.45;80.43;99645.44;6247980;28;20456;-67
2021/07/02 07:26:21;;;;;;;8.37;5.07;;;;;;;21.60;78.37;99656.97;6248091;28;20041;-67
2021/07/02 07:29:25;;;;;;;6.67;4.97;;;;;;;21.64;77.89;99660.94;6231671;28;20048;-66
2021/07/02 07:32:27;;;;;;;9.02;4.50;;;;;;;21.95;78.07;99668.06;6249191;28;20494;-66
2021/07/02 07:35:35;;;;;;;;;;;;;;;21.79;75.46;99676.13;6227735;28;20037;-67
2021/07/02 07:38:35;;;;;;;5.85;4.80;;;;;;;21.94;73.62;99667.19;6249116;28;19952;-67
2021/07/02 07:41:36;;;;;;;6.67;4.57;;;;;;;21.68;75.02;99677.31;6247970;28;20063;-66
2021/07/02 07:44:37;;;;;;;7.73;4.77;;;;;;;21.68;76.88;99674.66;6249044;28;20378;-69
2021/07/02 07:47:38;;;;;;;7.37;5.00;;;;;;;21.45;79.40;99670.13;6248460;28;20119;-66
2021/07/02 07:50:42;;;;;;;7.07;4.90;;;;;;;21.53;77.77;99685.19;6247659;28;20132;-65
2021/07/02 07:53:43;;;;;;;8.02;5.03;;;;;;;21.53;76.60;99687.84;6231098;28;20069;-67
2021/07/02 07:56:50;;;;;;;7.13;4.70;;;;;;;21.65;77.01;99685.66;6247961;28;20041;-64
2021/07/02 07:59:51;;;;;;;9.10;4.55;;;;;;;21.69;76.97;99673.69;6247752;28;20062;-66
2021/07/02 08:02:52;;;;;;;10.23;5.03;;;;;;;21.77;74.34;99683.44;6248580;28;20492;-67
2021/07/02 08:05:53;;;;;;;7.10;4.43;;;;;;;21.84;74.96;99693.16;6248181;28;20439;-65
2021/07/02 08:08:56;;;;;;;5.20;4.70;;;;;;;21.84;75.31;99706.44;6232002;28;20041;-65
2021/07/02 08:11:57;;;;;;;6.80;4.25;;;;;;;21.91;76.68;99710.06;6248150;28;20046;-65
2021/07/02 08:14:58;;;;;;;6.87;4.30;;;;;;;21.88;72.03;99713.06;6248646;28;20053;-67
2021/07/02 08:17:59;;;;;;;6.07;3.73;;;;;;;21.82;71.17;99705.78;6249803;28;20119;-66
2021/07/02 08:20:59;;;;;;;6.83;4.40;;;;;;;21.76;72.38;99703.00;6248699;28;20041;-67
2021/07/02 08:24:00;;;;;;;7.33;4.60;;;;;;;21.73;72.66;99710.31;6247893;28;20042;-65
2021/07/02 08:27:05;;;;;;;9.90;5.00;;;;;;;21.53;73.65;99731.16;6248398;28;20041;-66
2021/07/02 08:30:06;;;;;;;6.55;1.65;;;;;;;20.47;66.43;99749.88;6248590;28;20045;-69
2021/07/02 08:33:07;;;;;;;1.08;0.68;;;;;;;20.05;64.41;99769.31;6246583;28;20452;-64
2021/07/02 08:36:08;;;;;;;1.57;0.57;;;;;;;19.89;66.45;99770.09;6246871;28;20045;-66
2021/07/02 08:39:10;;;;;;;1.80;0.70;;;;;;;19.72;69.35;99769.22;6246457;28;20097;-71
2021/07/02 08:42:11;;;;;;;3.15;0.57;;;;;;;19.93;67.32;99769.66;6246442;28;20045;-68
2021/07/02 08:45:12;;;;;;;1.43;0.47;;;;;;;19.91;66.98;99766.34;6247193;28;20056;-67
2021/07/02 08:48:18;;;;;;;2.10;0.60;;;;;;;20.01;66.18;99760.88;6247291;28;20037;-64
2021/07/02 08:51:19;;;;;;;0.70;0.40;;;;;;;19.73;65.62;99750.53;6245853;28;20488;-72
2021/07/02 08:54:20;;;;;;;0.50;0.30;;;;;;;19.71;65.29;99749.88;6247137;28;20084;-64
2021/07/02 08:57:20;;;;;;;0.60;0.50;;;;;;;19.83;65.97;99739.84;6245918;28;20045;-64
2021/07/02 09:00:21;;;;;;;3.13;0.60;;;;;;;19.95;66.07;99732.41;6246662;28;20053;-64
2021/07/02 09:03:35;;;;;;;1.60;0.65;;;;;;;19.82;67.40;99722.28;6229376;28;20042;-66
2021/07/02 09:06:35;;;;;;;3.15;0.70;;;;;;;19.98;67.30;99732.09;6246000;28;20042;-71
2021/07/02 09:09:57;;;;;;;4.47;0.60;;;;;;;19.91;70.01;99733.69;6246799;28;20057;-66
2021/07/02 09:12:58;;;;;;;3.50;0.90;;;;;;;19.86;71.92;99728.91;6246709;28;20103;-69
2021/07/02 09:16:01;;;;;;;4.23;1.10;;;;;;;19.86;73.94;99726.25;6245302;28;20077;-69
2021/07/02 09:19:23;;;;;;;1.90;0.90;;;;;;;19.97;75.60;99734.88;6247042;28;20052;-68
2021/07/02 09:22:24;;;;;;;2.22;1.10;;;;;;;20.09;75.32;99736.22;6246550;28;20072;-67
2021/07/02 09:25:27;;;;;;;2.00;1.20;;;;;;;19.99;74.68;99736.38;6246382;28;20045;-66
2021/07/02 09:28:32;;;;;;;1.08;0.80;;;;;;;19.94;75.51;99722.81;6246487;28;20045;-72
2021/07/02 09:31:34;;;;;;;3.08;1.05;;;;;;;20.07;74.02;99723.16;6246329;28;20046;-73
2021/07/02 09:34:54;;;;;;;2.60;0.85;;;;;;;19.84;73.07;99728.22;6245120;28;20385;-68
2021/07/02 09:38:00;;;;;;;1.45;0.82;;;;;;;20.03;71.16;99736.88;6229056;28;20096;-65
2021/07/02 09:41:02;;;;;;;2.10;0.90;;;;;;;20.06;70.18;99742.69;6245292;28;20041;-70
2021/07/02 09:44:12;;;;;;;1.83;0.60;;;;;;;19.99;70.09;99740.84;6244933;28;20049;-66
2021/07/02 09:47:29;;;;;;;3.08;0.43;;;;;;;19.91;68.43;99754.88;6244877;28;20041;-63
2021/07/02 09:50:30;;;;;;;1.20;0.90;;;;;;;19.78;69.57;99773.88;6246340;28;20423;-63
2021/07/02 09:53:34;;;;;;;2.15;0.50;;;;;;;19.79;69.92;99772.91;6245070;28;20129;-65
2021/07/02 09:56:35;;;;;;;3.17;0.65;;;;;;;19.69;67.38;99754.47;6246132;28;20041;-64
2021/07/02 09:59:36;;;;;;;0.57;0.30;;;;;;;19.70;67.38;99750.00;6244847;28;20064;-65
2021/07/02 10:02:37;;;;;;;0.87;0.27;;;;;;;19.59;67.93;99743.19;6246035;28;20048;-64
2021/07/02 10:05:52;;;;;;;1.17;0.40;;;;;;;19.59;68.93;99752.94;6245964;28;20049;-64
2021/07/02 10:08:52;;;;;;;1.05;0.40;;;;;;;19.37;71.96;99749.84;6245806;28;20045;-66
2021/07/02 10:11:53;;;;;;;1.17;0.40;;;;;;;19.41;69.68;99724.75;6245949;28;20049;-64
2021/07/02 10:14:54;;;;;;;0.97;0.40;;;;;;;19.42;72.40;99720.31;6244832;28;20096;-64
2021/07/02 10:17:57;;;;;;;3.13;0.50;;;;;;;19.50;71.00;99717.69;6248009;28;20045;-65
2021/07/02 10:21:03;;;;;;;0.20;0.20;;;;;;;19.42;72.75;99709.72;6250828;28;20281;-64
2021/07/02 10:24:07;;;;;;;2.15;0.55;;;;;;;19.32;72.99;99709.84;6251118;28;20164;-66
2021/07/02 10:27:08;;;;;;;0.70;0.43;;;;;;;19.19;72.20;99699.69;6249481;28;20106;-68
2021/07/02 10:30:09;;;;;;;3.70;0.30;;;;;;;19.13;72.56;99700.31;6249408;28;20042;-65
2021/07/02 10:33:12;;;;;;;0.75;0.30;;;;;;;19.11;72.33;99700.47;6250725;28;20046;-65
2021/07/02 10:36:15;;;;;;;0.50;0.20;;;;;;;19.14;73.26;99707.25;6250402;28;20038;-65
2021/07/02 10:39:30;;;;;;;3.72;0.40;;;;;;;19.15;74.66;99716.88;6249363;28;20049;-67
2021/07/02 10:42:33;;;;;;;0.90;0.30;;;;;;;19.32;72.48;99717.78;6249230;28;20462;-63
2021/07/02 10:45:36;;;;;;;0.90;0.30;;;;;;;19.45;71.81;99723.44;6250257;28;20041;-66
2021/07/02 10:48:55;;;;;;;0.30;0.20;;;;;;;19.56;73.56;99732.94;6249011;28;20050;-66
2021/07/02 10:51:58;;;;;;;1.10;0.22;;;;;;;19.67;71.21;99735.28;6231925;28;20544;-64
2021/07/02 10:55:05;;;;;;;1.40;0.22;;;;;;;19.79;72.95;99727.06;6246122;28;20046;-64
2021/07/02 10:58:06;;;;;;;1.80;0.40;;;;;;;19.83;72.68;99709.84;6231481;28;20072;-64
2021/07/02 11:01:12;;;;;;;0.93;0.40;;;;;;;20.03;74.91;99699.81;6232397;28;20053;-65
2021/07/02 11:04:49;;;;;;;0.75;0.20;;;;;;;20.17;72.27;99691.22;6249143;28;20041;-64
2021/07/02 11:07:53;;;;;;;1.13;0.20;;;;;;;20.33;72.92;99696.53;6250128;28;20045;-65
2021/07/02 11:10:56;;;;;;;1.83;0.25;;;;;;;20.17;72.16;99693.03;6249757;28;20508;-64
2021/07/02 11:14:08;;;;;;;0.75;0.38;;;;;;;20.33;74.49;99693.06;6249845;28;20041;-62
2021/07/02 11:17:30;;;;;;;2.70;0.38;;;;;;;20.57;71.90;99678.13;6247902;28;20048;-65
2021/07/02 11:20:31;;;;;;;3.35;0.20;;;;;;;20.53;71.54;99673.19;6248144;28;20174;-64
2021/07/02 11:23:41;;;;;;;4.50;0.40;;;;;;;20.83;75.18;99667.34;6232110;28;20492;-58
2021/07/02 11:26:44;;;;;;;0.80;0.10;;;;;;;20.97;73.05;99664.00;6249460;28;20045;-58
2021/07/02 11:29:52;;;;;;;0.10;0.10;;;;;;;21.31;69.18;99663.72;6248572;28;20128;-58
2021/07/02 11:32:55;;;;;;;0.22;0.10;;;;;;;21.39;66.86;99657.53;6249385;28;20038;-57
2021/07/02 11:35:55;;;;;;;0.82;0.20;;;;;;;21.65;67.12;99654.63;6249255;28;20511;-58
2021/07/02 11:38:56;;;;;;;1.70;0.13;;;;;;;21.85;63.57;99654.19;6249566;28;20053;-58
2021/07/02 11:42:06;;;;;;;0.23;0.20;;;;;;;21.98;61.73;99648.25;6249261;28;20054;-58
2021/07/02 11:45:07;;;;;;;0.50;0.22;;;;;;;22.14;62.40;99648.16;6248230;28;20041;-57
2021/07/02 11:48:35;;;;;;;1.45;0.20;;;;;;;22.71;57.07;99650.31;6247844;28;20064;-58
2021/07/02 11:51:36;;;;;;;0.35;0.17;;;;;;;23.72;55.56;99650.59;6247899;28;20060;-58
2021/07/02 11:54:47;;;;;;;2.90;0.30;;;;;;;24.37;53.08;99641.75;6248940;28;20049;-58
2021/07/02 11:57:48;;;;;;;0.10;0.08;;;;;;;23.66;52.02;99656.66;6249018;28;20493;-59
2021/07/02 12:00:49;;;;;;;1.40;0.10;;;;;;;23.57;53.26;99657.78;6248661;28;20049;-60
2021/07/02 12:03:51;;;;;;;1.67;0.30;;;;;;;23.58;52.08;99654.13;6248662;28;20091;-60
2021/07/02 12:06:52;;;;;;;1.35;0.20;;;;;;;23.07;51.18;99654.09;6248643;28;20104;-59
2021/07/02 12:09:53;;;;;;;0.70;0.10;;;;;;;23.00;53.02;99651.34;6248560;28;20045;-59
2021/07/02 12:13:05;;;;;;;0.57;0.20;;;;;;;22.72;56.15;99648.47;6247443;28;20084;-59
2021/07/02 12:16:09;;;;;;;6.00;0.30;;;;;;;23.09;56.04;99646.75;6248364;28;20045;-58
2021/07/02 12:19:15;;;;;;;0.00;0.00;;;;;;;23.66;56.43;99645.16;6248330;28;20049;-59
2021/07/02 12:22:16;;;;;;;0.15;0.13;;;;;;;23.03;54.25;99629.69;6248326;28;20045;-58
2021/07/02 12:25:19;;;;;;;0.35;0.20;;;;;;;22.90;55.56;99648.13;6243846;28;20041;-59
2021/07/02 12:28:19;;;;;;;0.10;0.10;;;;;;;22.82;58.20;99645.56;6248214;28;20049;-64
2021/07/02 12:31:22;;;;;;;0.10;0.10;;;;;;;22.92;56.43;99654.06;6247340;28;20404;-63
2021/07/02 12:34:24;;;;;;;1.10;0.10;;;;;;;23.09;56.39;99650.25;6248868;28;20088;-63
2021/07/02 12:37:26;;;;;;;0.68;0.15;;;;;;;22.91;55.92;99660.41;6248743;28;20044;-63
2021/07/02 12:40:27;;;;;;;1.98;0.20;;;;;;;22.96;56.22;99662.50;6247738;28;20064;-66
2021/07/02 12:43:29;;;;;;;0.53;0.20;;;;;;;23.24;54.66;99668.03;6247946;28;20053;-64
2021/07/02 12:46:30;;;;;;;0.80;0.20;;;;;;;23.27;53.49;99657.03;6246729;28;20067;-64
2021/07/02 12:50:02;;;;;;;4.28;0.20;;;;;;;23.36;53.30;99658.56;6247775;28;20041;-64
2021/07/02 12:56:22;;;;;;;0.00;0.00;;;;;;;23.53;49.97;99653.84;6247921;28;20068;-59
2021/07/02 12:59:23;;;;;;;0.13;0.13;;;;;;;23.65;52.44;99665.66;6247574;28;20412;-59
2021/07/02 13:02:38;;;;;;;0.03;0.03;;;;;;;23.65;52.94;99662.16;6246447;28;20396;-59
2021/07/02 13:05:40;;;;;;;0.10;0.10;;;;;;;23.65;51.31;99657.66;6246305;28;20045;-59
2021/07/02 13:08:40;;;;;;;0.10;0.10;;;;;;;23.72;52.74;99666.56;6246186;28;20480;-59
2021/07/02 13:11:41;;;;;;;0.60;0.43;;;;;;;23.89;51.25;99653.84;6247440;28;20076;-58
2021/07/02 13:14:45;;;;;;;1.07;0.10;;;;;;;23.97;52.38;99660.06;6229842;28;20048;-59
2021/07/02 13:17:46;;;;;;;0.20;0.08;;;;;;;24.12;52.46;99663.50;6247061;28;20482;-60
2021/07/02 13:20:59;;;;;;;0.10;0.10;;;;;;;23.60;50.76;99661.94;6245586;28;20043;-59
2021/07/02 13:24:01;;;;;;;1.40;0.10;;;;;;;23.59;52.92;99654.94;6246315;28;20499;-59
2021/07/02 13:27:02;;;;;;;0.60;0.20;;;;;;;23.82;53.73;99660.13;6229639;28;20140;-59
2021/07/02 13:30:09;;;;;;;0.10;0.10;;;;;;;23.63;48.60;99651.69;6247033;28;20415;-59
2021/07/02 13:33:13;;;;;;;0.60;0.10;;;;;;;23.76;48.89;99648.34;6245560;28;20057;-59
2021/07/02 13:36:13;;;;;;;0.13;0.10;;;;;;;23.54;48.10;99650.19;6246841;28;20041;-58
2021/07/02 13:39:20;;;;;;;0.17;0.00;;;;;;;23.48;46.37;99646.41;6245503;28;20049;-60
2021/07/02 13:42:27;;;;;;;1.98;0.20;;;;;;;23.68;47.83;99648.47;6229171;28;20049;-59
2021/07/02 13:45:27;;;;;;;0.05;0.05;;;;;;;23.94;50.36;99640.78;6229016;28;20127;-59
2021/07/02 13:48:28;;;;;;;1.20;0.10;;;;;;;24.06;46.40;99634.94;6246637;28;20503;-59
2021/07/02 13:51:29;;;;;;;0.10;0.10;;;;;;;24.21;48.91;99640.19;6246202;28;20444;-59
2021/07/02 13:54:33;;;;;;;0.47;0.10;;;;;;;24.36;48.46;99638.28;6246376;28;20073;-59
2021/07/02 13:57:33;;;;;;;0.15;0.08;;;;;;;24.31;49.34;99633.50;6246584;28;20488;-59
2021/07/02 14:00:34;;;;;;;0.73;0.10;;;;;;;24.48;45.95;99647.41;6246431;28;20064;-60
2021/07/02 14:03:35;;;;;;;0.00;0.00;;;;;;;24.57;47.16;99647.28;6245234;28;20085;-59
2021/07/02 14:06:38;;;;;;;1.00;0.13;;;;;;;24.58;47.99;99640.91;6246272;28;20289;-59
2021/07/02 14:09:40;;;;;;;0.52;0.20;;;;;;;24.50;44.19;99640.06;6245055;28;20144;-59
2021/07/02 14:12:41;;;;;;;0.32;0.20;;;;;;;24.47;43.93;99651.06;6246197;28;20054;-59
2021/07/02 14:15:42;;;;;;;0.10;0.10;;;;;;;24.48;46.34;99647.41;6246243;28;20042;-59
2021/07/02 14:18:42;;;;;;;0.47;0.27;;;;;;;24.47;46.59;99647.59;6246585;28;20754;-59
2021/07/02 14:21:43;;;;;;;1.00;0.20;;;;;;;24.33;47.15;99642.13;6246792;28;20119;-59